Terminal Aerodrome Forecast
Issued by NWS

Home | Current Version | Previous Version | Text Only | Print | Product List | Glossary On
Versions: 1 2 3 4 5 6 7 8 9 10 11 12 13 14 15
000
FTUS43 KMQT 251100
TAFIWD
TAF
KIWD 251136Z 2512/2612 24007KT P6SM SCT008 OVC015
     FM251400 23008KT P6SM OVC025
     FM251800 22008KT P6SM OVC030
     FM260000 21004KT P6SM VCSH OVC025
     FM260500 21004KT P6SM -SN OVC015
     FM261000 00000KT 6SM -SN OVC008
      AMD LTD TO CLD VIS AND WIND=

USA.gov is the U.S. government's official web portal to all federal, state and local government web resources and services.